Barrigada, Guam
Current Conditions -  °F | °C
As of 7:54 PM on Wednesday 26 Nov 2014 (Local Time) from PGUM Reporting Station
Few Clouds Few Clouds  
Wind Chill: 82°   Ceiling: Unl
Heat Index: 88°   Visibility: 10mi
Dew Point: 74°   Wind: 9mph
Humidity: 76%   Direction: 50°NE
Pressure: 29.87"   Gusts: NA
Location:  13.47°N, 144.8°E
Report Text: PGUM 260954Z 05008KT 10SM FEW033 28/23 A2987 RMK AO2 SLP106 T02780233
Loading
Personal Weather Stations






























Interactive Weather Map New forecast layout! Learn more

10-Day Weather Forecast

Advertisements
Track Severe Weather on mobile